createdAt,value
2019-02-15T00:01:34.947Z,2.10
2019-02-15T00:04:05.320Z,1.70
2019-02-15T00:06:38.112Z,1.70
2019-02-15T00:09:09.587Z,1.70
2019-02-15T00:11:40.388Z,1.90
2019-02-15T00:14:11.174Z,1.90
2019-02-15T00:16:43.716Z,1.90
2019-02-15T00:19:24.166Z,1.60
2019-02-15T00:21:55.145Z,1.70
2019-02-15T00:24:25.846Z,1.30
2019-02-15T00:26:58.031Z,1.70
2019-02-15T00:29:28.687Z,1.40
2019-02-15T00:31:59.295Z,1.40
2019-02-15T00:34:30.691Z,1.40
2019-02-15T00:37:01.375Z,1.30
2019-02-15T00:39:33.236Z,1.40
2019-02-15T00:42:03.691Z,1.60
2019-02-15T00:44:34.006Z,1.40
2019-02-15T00:47:18.788Z,1.60
2019-02-15T00:49:57.165Z,1.30
2019-02-15T00:52:41.649Z,1.60
2019-02-15T00:55:29.875Z,1.50
2019-02-15T00:58:26.789Z,1.30
2019-02-15T01:01:15.925Z,1.40
2019-02-15T01:04:12.935Z,1.80
2019-02-15T01:07:00.197Z,1.40
2019-02-15T01:09:48.039Z,1.30
2019-02-15T01:12:21.948Z,1.40
2019-02-15T01:14:52.654Z,1.30
2019-02-15T01:17:23.034Z,1.60
2019-02-15T01:19:53.692Z,1.70
2019-02-15T01:22:24.422Z,1.40
2019-02-15T01:24:56.226Z,1.20
2019-02-15T01:27:51.583Z,1.40
2019-02-15T01:30:41.595Z,1.10
2019-02-15T01:33:29.463Z,1.10
2019-02-15T01:36:27.636Z,0.80
2019-02-15T01:39:08.201Z,1.30
2019-02-15T01:41:52.479Z,0.90
2019-02-15T01:44:28.618Z,0.90
2019-02-15T01:47:24.101Z,0.80
2019-02-15T01:49:54.453Z,0.80
2019-02-15T01:52:26.175Z,0.60
2019-02-15T01:54:58.825Z,0.90
2019-02-15T01:57:30.621Z,0.90
2019-02-15T02:00:01.338Z,1.00
2019-02-15T02:02:32.094Z,0.80
2019-02-15T02:05:02.418Z,0.80
2019-02-15T02:07:33.152Z,0.60
2019-02-15T02:10:04.241Z,0.70
2019-02-15T02:12:36.579Z,0.70
2019-02-15T02:15:08.713Z,1.00
2019-02-15T02:17:39.050Z,0.80
2019-02-15T02:20:10.471Z,0.60
2019-02-15T02:22:44.823Z,0.70
2019-02-15T02:25:15.505Z,0.80
2019-02-15T02:27:45.856Z,0.70
2019-02-15T02:30:16.961Z,0.80
2019-02-15T02:32:47.865Z,0.70
2019-02-15T02:35:18.367Z,0.70
2019-02-15T02:37:48.923Z,0.70
2019-02-15T02:40:22.469Z,0.60
2019-02-15T02:42:53.015Z,0.70
2019-02-15T02:45:23.629Z,0.80
2019-02-15T02:47:54.161Z,0.80
2019-02-15T02:50:25.434Z,0.90
2019-02-15T02:52:56.348Z,0.90
2019-02-15T02:55:27.662Z,0.90
2019-02-15T02:57:59.028Z,0.90
2019-02-15T03:00:33.607Z,0.80
2019-02-15T03:03:02.279Z,0.80
2019-02-15T03:05:32.957Z,0.90
2019-02-15T03:08:03.926Z,0.60
2019-02-15T03:10:34.954Z,0.60
2019-02-15T03:13:05.473Z,0.60
2019-02-15T03:15:36.172Z,0.60
2019-02-15T03:18:06.691Z,0.60
2019-02-15T03:20:38.389Z,0.60
2019-02-15T03:23:09.621Z,0.30
2019-02-15T03:25:40.754Z,0.50
2019-02-15T03:28:15.589Z,0.40
2019-02-15T03:30:47.622Z,0.40
2019-02-15T03:33:19.152Z,0.60
2019-02-15T03:35:55.912Z,0.60
2019-02-15T03:38:37.854Z,0.40
2019-02-15T03:41:26.244Z,0.50
2019-02-15T03:43:57.391Z,0.60
2019-02-15T03:46:27.824Z,0.50
2019-02-15T03:49:00.220Z,0.30
2019-02-15T03:51:30.294Z,0.50
2019-02-15T03:54:01.209Z,0.50
2019-02-15T03:56:32.861Z,0.40
2019-02-15T03:59:03.558Z,0.50
2019-02-15T04:01:34.263Z,0.60
2019-02-15T04:04:05.865Z,0.30
2019-02-15T04:06:36.273Z,0.40
2019-02-15T04:09:07.338Z,0.70
2019-02-15T04:11:38.229Z,0.40
2019-02-15T04:14:09.773Z,0.40
2019-02-15T04:16:41.639Z,0.50
2019-02-15T04:19:12.064Z,0.20
2019-02-15T04:21:44.340Z,0.30
2019-02-15T04:24:15.112Z,0.40
2019-02-15T04:26:45.982Z,0.40
2019-02-15T04:29:16.526Z,0.20
2019-02-15T04:31:48.413Z,0.40
2019-02-15T04:34:19.281Z,0.40
2019-02-15T04:36:50.122Z,0.40
2019-02-15T04:39:20.676Z,0.40
2019-02-15T04:41:51.495Z,0.50
2019-02-15T04:44:21.994Z,0.30
2019-02-15T04:46:52.697Z,0.20
2019-02-15T04:49:23.260Z,0.20
2019-02-15T04:51:53.789Z,0.40
2019-02-15T04:54:24.363Z,0.20
2019-02-15T04:56:56.612Z,0.50
2019-02-15T04:59:27.428Z,0.40
2019-02-15T05:01:58.158Z,0.40
2019-02-15T05:04:29.838Z,0.40
2019-02-15T05:07:01.948Z,0.40
2019-02-15T05:09:33.212Z,0.40
2019-02-15T05:12:05.152Z,0.40
2019-02-15T05:14:35.942Z,0.40
2019-02-15T05:17:06.469Z,0.50
2019-02-15T05:19:37.154Z,0.40
2019-02-15T05:22:08.355Z,0.50
2019-02-15T05:24:40.337Z,0.40
2019-02-15T05:27:11.274Z,0.40
2019-02-15T05:29:42.170Z,0.20
2019-02-15T05:32:13.170Z,0.10
2019-02-15T05:34:44.094Z,0.20
2019-02-15T05:37:15.370Z,0.40
2019-02-15T05:39:47.358Z,0.40
2019-02-15T05:42:18.077Z,0.40
2019-02-15T05:44:49.281Z,0.40
2019-02-15T05:47:19.780Z,0.40
2019-02-15T05:49:50.613Z,0.10
2019-02-15T05:52:21.853Z,0.30
2019-02-15T05:54:53.005Z,0.30
2019-02-15T05:57:24.234Z,0.40
2019-02-15T05:59:55.249Z,0.10
2019-02-15T06:02:26.112Z,0.40
2019-02-15T06:04:59.148Z,0.20
2019-02-15T06:07:30.183Z,0.40
2019-02-15T06:10:01.029Z,0.00
2019-02-15T06:12:31.642Z,0.10
2019-02-15T06:15:14.463Z,0.30
2019-02-15T06:17:35.917Z,0.40
2019-02-15T06:20:08.701Z,0.40
2019-02-15T06:22:39.411Z,0.40
2019-02-15T06:25:10.006Z,0.20
2019-02-15T06:27:40.849Z,0.30
2019-02-15T06:30:11.455Z,0.40
2019-02-15T06:32:43.197Z,0.20
2019-02-15T06:35:14.095Z,0.00
2019-02-15T06:37:46.966Z,0.30
2019-02-15T06:40:18.238Z,0.40
2019-02-15T06:42:49.435Z,0.40
2019-02-15T06:45:25.301Z,0.40
2019-02-15T06:47:55.481Z,0.40
2019-02-15T06:50:26.003Z,0.50
2019-02-15T06:52:56.517Z,0.50
2019-02-15T06:55:28.574Z,0.70
2019-02-15T06:57:59.490Z,0.60
2019-02-15T07:01:00.983Z,0.70
2019-02-15T07:03:58.708Z,0.30
2019-02-15T07:06:29.241Z,0.70
2019-02-15T07:08:59.820Z,0.70
2019-02-15T07:11:32.175Z,0.60
2019-02-15T07:14:03.640Z,0.80
2019-02-15T07:16:34.502Z,0.90
2019-02-15T07:19:06.841Z,1.10
2019-02-15T07:21:37.935Z,1.20
2019-02-15T07:24:10.364Z,1.10
2019-02-15T07:26:41.085Z,1.40
2019-02-15T07:29:12.257Z,2.10
2019-02-15T07:31:44.174Z,2.70
2019-02-15T07:34:15.661Z,3.30
2019-02-15T07:36:47.784Z,4.20
2019-02-15T07:39:18.458Z,5.20
2019-02-15T07:41:49.038Z,6.00
2019-02-15T07:44:19.934Z,6.30
2019-02-15T07:46:50.949Z,6.90
2019-02-15T07:49:26.987Z,8.10
2019-02-15T07:51:55.516Z,8.80
2019-02-15T07:54:26.863Z,9.50
2019-02-15T07:56:57.733Z,10.30
2019-02-15T07:59:28.729Z,11.20
2019-02-15T08:02:02.068Z,12.20
2019-02-15T08:04:33.791Z,12.80
2019-02-15T08:07:04.353Z,12.90
2019-02-15T08:09:35.219Z,12.00
2019-02-15T08:12:05.953Z,12.30
2019-02-15T08:14:36.903Z,12.00
2019-02-15T08:17:08.166Z,12.10
2019-02-15T08:19:43.555Z,11.20
2019-02-15T08:22:16.051Z,9.60
2019-02-15T08:24:46.665Z,8.70
2019-02-15T08:27:19.822Z,7.80
2019-02-15T08:29:51.213Z,7.60
2019-02-15T08:32:22.868Z,6.70
2019-02-15T08:34:54.351Z,6.50
2019-02-15T08:37:24.951Z,6.20
2019-02-15T08:39:56.269Z,5.80
2019-02-15T08:42:28.015Z,5.80
2019-02-15T08:44:58.835Z,6.20
2019-02-15T08:47:30.939Z,6.20
2019-02-15T08:50:03.361Z,6.20
2019-02-15T08:52:35.536Z,6.20
2019-02-15T08:55:06.310Z,7.00
2019-02-15T08:57:37.257Z,7.60
2019-02-15T09:00:11.200Z,8.20
2019-02-15T09:02:43.517Z,8.40
2019-02-15T09:05:14.037Z,9.30
2019-02-15T09:07:47.018Z,9.90
2019-02-15T09:10:17.557Z,9.40
2019-02-15T09:12:51.050Z,9.20
2019-02-15T09:15:23.792Z,9.30
2019-02-15T09:17:54.273Z,8.70
2019-02-15T09:20:25.169Z,8.50
2019-02-15T09:22:55.724Z,8.60
2019-02-15T09:25:26.199Z,8.50
2019-02-15T09:28:15.557Z,8.40
2019-02-15T09:30:50.763Z,8.40
2019-02-15T09:33:21.621Z,8.40
2019-02-15T09:35:52.980Z,8.50
2019-02-15T09:38:23.863Z,8.70
2019-02-15T09:40:55.541Z,9.10
2019-02-15T09:43:25.971Z,9.00
2019-02-15T09:45:58.003Z,9.80
2019-02-15T09:48:28.758Z,10.20
2019-02-15T09:50:59.215Z,10.70
2019-02-15T09:53:29.921Z,11.60
2019-02-15T09:56:00.821Z,12.20
2019-02-15T09:58:32.903Z,13.20
2019-02-15T10:01:03.880Z,14.50
2019-02-15T10:03:34.337Z,13.90
2019-02-15T10:06:04.794Z,12.50
2019-02-15T10:08:36.638Z,12.90
2019-02-15T10:11:07.586Z,13.80
2019-02-15T10:13:39.282Z,14.30
2019-02-15T10:16:09.813Z,14.40
2019-02-15T10:18:40.778Z,14.50
2019-02-15T10:21:11.176Z,13.70
2019-02-15T10:23:46.782Z,13.00
2019-02-15T10:26:19.089Z,13.00
2019-02-15T10:28:49.548Z,12.70
2019-02-15T10:31:20.779Z,11.90
2019-02-15T10:33:51.463Z,10.90
2019-02-15T10:36:22.938Z,10.20
2019-02-15T10:38:53.543Z,10.20
2019-02-15T10:41:24.063Z,10.30
2019-02-15T10:43:55.431Z,10.80
2019-02-15T10:46:26.480Z,11.00
2019-02-15T10:48:59.030Z,11.90
2019-02-15T10:51:29.690Z,11.80
2019-02-15T10:54:00.351Z,11.10
2019-02-15T10:56:31.153Z,10.80
2019-02-15T10:59:04.751Z,10.30
2019-02-15T11:01:35.279Z,10.60
2019-02-15T11:04:07.346Z,10.90
2019-02-15T11:06:37.970Z,11.30
2019-02-15T11:09:12.864Z,11.20
2019-02-15T11:11:45.168Z,11.20
2019-02-15T11:14:16.185Z,11.00
2019-02-15T11:16:47.547Z,12.10
2019-02-15T11:19:19.925Z,12.60
2019-02-15T11:21:52.533Z,13.00
2019-02-15T11:24:23.030Z,13.40
2019-02-15T11:26:56.693Z,13.50
2019-02-15T11:29:28.338Z,13.10
2019-02-15T11:31:59.503Z,13.90
2019-02-15T11:34:30.185Z,14.40
2019-02-15T11:37:01.793Z,14.00
2019-02-15T11:39:32.377Z,13.60
2019-02-15T11:42:02.979Z,13.20
2019-02-15T11:44:33.713Z,13.50
2019-02-15T11:47:05.976Z,14.40
2019-02-15T11:49:36.504Z,14.30
2019-02-15T11:52:06.961Z,14.10
2019-02-15T11:54:38.084Z,14.00
2019-02-15T11:57:10.681Z,13.40
2019-02-15T11:59:41.186Z,12.60
2019-02-15T12:02:11.655Z,12.10
2019-02-15T12:04:42.189Z,11.80
2019-02-15T12:07:14.536Z,11.70
2019-02-15T12:09:45.222Z,11.60
2019-02-15T12:12:17.124Z,11.00
2019-02-15T12:14:48.750Z,11.30
2019-02-15T12:17:20.836Z,11.50
2019-02-15T12:19:51.341Z,11.80
2019-02-15T12:22:23.397Z,12.00
2019-02-15T12:24:53.873Z,11.80
2019-02-15T12:27:25.606Z,11.30
2019-02-15T12:29:56.546Z,11.00
2019-02-15T12:32:27.021Z,11.00
2019-02-15T12:34:59.309Z,11.10
2019-02-15T12:37:31.502Z,11.20
2019-02-15T12:40:03.458Z,10.80
2019-02-15T12:42:35.051Z,10.80
2019-02-15T12:45:05.830Z,11.20
2019-02-15T12:47:37.026Z,10.80
2019-02-15T12:50:12.469Z,11.30
2019-02-15T12:52:43.924Z,11.20
2019-02-15T12:55:14.738Z,11.10
2019-02-15T12:57:45.621Z,11.70
2019-02-15T13:00:16.142Z,12.70
2019-02-15T13:02:46.876Z,14.00
2019-02-15T13:05:18.957Z,14.90
2019-02-15T13:07:49.438Z,15.90
2019-02-15T13:10:23.553Z,16.10
2019-02-15T13:12:55.688Z,17.30
2019-02-15T13:15:27.422Z,17.30
2019-02-15T13:17:58.631Z,17.10
2019-02-15T13:20:29.060Z,16.80
2019-02-15T13:23:00.296Z,15.60
2019-02-15T13:25:36.866Z,15.30
2019-02-15T13:28:03.913Z,15.00
2019-02-15T13:30:34.647Z,14.70
2019-02-15T13:33:05.741Z,14.40
2019-02-15T13:35:37.465Z,14.20
2019-02-15T13:38:07.934Z,13.70
2019-02-15T13:40:39.958Z,13.50
2019-02-15T13:43:10.441Z,13.10
2019-02-15T13:45:41.282Z,13.10
2019-02-15T13:48:12.217Z,13.10
2019-02-15T13:50:43.058Z,13.20
2019-02-15T13:53:13.566Z,13.00
2019-02-15T13:55:44.093Z,13.10
2019-02-15T13:58:14.624Z,12.80
2019-02-15T14:00:45.197Z,13.10
2019-02-15T14:03:17.189Z,13.30
2019-02-15T14:05:48.020Z,12.90
2019-02-15T14:08:18.750Z,12.90
2019-02-15T14:10:49.645Z,13.20
2019-02-15T14:13:20.271Z,13.10
2019-02-15T14:15:55.802Z,13.40
2019-02-15T14:18:26.431Z,13.20
2019-02-15T14:20:57.313Z,13.20
2019-02-15T14:23:30.684Z,13.10
2019-02-15T14:26:01.326Z,13.00
2019-02-15T14:28:31.822Z,12.80
2019-02-15T14:31:02.642Z,12.90
2019-02-15T14:33:33.111Z,12.60
2019-02-15T14:36:03.622Z,12.40
2019-02-15T14:38:37.144Z,12.70
2019-02-15T14:41:09.000Z,12.50
2019-02-15T14:43:41.337Z,12.30
2019-02-15T14:46:11.855Z,12.20
2019-02-15T14:48:43.566Z,12.40
2019-02-15T14:51:15.495Z,12.40
2019-02-15T14:53:47.014Z,12.40
2019-02-15T14:56:17.639Z,12.30
2019-02-15T14:58:48.266Z,12.00
2019-02-15T15:01:18.765Z,12.00
2019-02-15T15:03:49.585Z,12.00
2019-02-15T15:06:20.028Z,11.80
2019-02-15T15:08:50.839Z,11.90
2019-02-15T15:11:21.521Z,12.20
2019-02-15T15:13:52.406Z,12.20
2019-02-15T15:16:24.265Z,11.90
2019-02-15T15:18:54.803Z,12.00
2019-02-15T15:21:25.694Z,12.00
2019-02-15T15:23:56.635Z,11.80
2019-02-15T15:26:30.752Z,11.80
2019-02-15T15:29:01.523Z,11.70
2019-02-15T15:31:33.610Z,11.90
2019-02-15T15:34:04.446Z,11.70
2019-02-15T15:36:35.403Z,11.70
2019-02-15T15:39:06.563Z,11.70
2019-02-15T15:41:39.456Z,11.80
2019-02-15T15:44:10.352Z,11.70
2019-02-15T15:46:42.171Z,11.70
2019-02-15T15:49:17.000Z,11.30
2019-02-15T15:51:47.584Z,11.40
2019-02-15T15:54:18.582Z,11.40
2019-02-15T15:56:52.157Z,11.20
2019-02-15T15:59:25.076Z,11.20
2019-02-15T16:02:01.077Z,11.50
2019-02-15T16:04:35.803Z,11.30
2019-02-15T16:07:06.527Z,11.00
2019-02-15T16:09:40.628Z,11.20
2019-02-15T16:12:11.396Z,11.10
2019-02-15T16:14:42.412Z,11.10
2019-02-15T16:17:17.958Z,10.60
2019-02-15T16:19:49.903Z,10.60
2019-02-15T16:22:21.774Z,10.60
2019-02-15T16:24:54.064Z,10.90
2019-02-15T16:27:24.828Z,10.60
2019-02-15T16:29:56.827Z,10.50
2019-02-15T16:32:28.237Z,10.60
2019-02-15T16:34:59.214Z,10.30
2019-02-15T16:37:31.124Z,10.40
2019-02-15T16:40:01.741Z,10.20
2019-02-15T16:42:34.109Z,10.20
2019-02-15T16:45:05.217Z,10.00
2019-02-15T16:47:36.359Z,9.90
2019-02-15T16:50:09.270Z,10.30
2019-02-15T16:52:39.994Z,9.80
2019-02-15T16:55:13.166Z,10.10
2019-02-15T16:57:43.621Z,9.60
2019-02-15T17:00:16.206Z,9.70
2019-02-15T17:02:46.806Z,9.70
2019-02-15T17:05:17.503Z,9.80
2019-02-15T17:07:47.994Z,9.10
2019-02-15T17:10:19.727Z,9.10
2019-02-15T17:12:50.509Z,9.30
2019-02-15T17:15:21.504Z,9.10
2019-02-15T17:17:54.722Z,8.80
2019-02-15T17:20:25.727Z,8.80
2019-02-15T17:22:56.729Z,8.80
2019-02-15T17:25:27.179Z,8.70
2019-02-15T17:27:57.756Z,8.70
2019-02-15T17:30:29.055Z,8.40
2019-02-15T17:32:59.548Z,8.30
2019-02-15T17:35:31.701Z,8.50
2019-02-15T17:38:03.868Z,8.20
2019-02-15T17:40:53.266Z,8.40
2019-02-15T17:43:23.956Z,8.50
2019-02-15T17:45:54.634Z,8.40
2019-02-15T17:48:25.095Z,8.10
2019-02-15T17:50:55.529Z,8.10
2019-02-15T17:53:26.331Z,8.30
2019-02-15T17:55:56.725Z,8.20
2019-02-15T17:58:27.486Z,8.40
2019-02-15T18:00:58.611Z,8.20
2019-02-15T18:03:29.007Z,8.00
2019-02-15T18:05:59.539Z,8.10
2019-02-15T18:08:29.926Z,8.20
2019-02-15T18:11:01.155Z,7.70
2019-02-15T18:13:31.933Z,8.00
2019-02-15T18:16:02.699Z,7.90
2019-02-15T18:18:33.128Z,7.80
2019-02-15T18:21:03.898Z,7.80
2019-02-15T18:23:34.330Z,7.80
2019-02-15T18:26:04.886Z,7.70
2019-02-15T18:28:35.577Z,7.70
2019-02-15T18:31:06.099Z,7.70
2019-02-15T18:33:36.840Z,7.50
2019-02-15T18:36:07.289Z,7.60
2019-02-15T18:38:40.523Z,7.50
2019-02-15T18:41:13.600Z,7.40
2019-02-15T18:43:43.507Z,7.40
2019-02-15T18:46:14.660Z,7.10
2019-02-15T18:48:46.360Z,7.10
2019-02-15T18:51:16.773Z,7.10
2019-02-15T18:53:47.467Z,6.90
2019-02-15T18:56:17.945Z,7.20
2019-02-15T18:58:48.344Z,6.80
2019-02-15T19:01:19.055Z,7.00
2019-02-15T19:03:49.457Z,6.90
2019-02-15T19:06:20.219Z,6.50
2019-02-15T19:08:50.615Z,6.80
2019-02-15T19:11:21.121Z,6.50
2019-02-15T19:13:51.495Z,6.50
2019-02-15T19:16:22.301Z,6.90
2019-02-15T19:18:52.739Z,6.50
2019-02-15T19:21:23.517Z,6.80
2019-02-15T19:23:53.947Z,6.40
2019-02-15T19:26:24.536Z,6.80
2019-02-15T19:28:54.925Z,6.40
2019-02-15T19:31:25.873Z,6.30
2019-02-15T19:33:56.405Z,6.50
2019-02-15T19:36:26.886Z,6.40
2019-02-15T19:38:57.431Z,6.20
2019-02-15T19:41:28.497Z,6.40
2019-02-15T19:43:59.163Z,6.20
2019-02-15T19:46:29.833Z,6.30
2019-02-15T19:49:00.538Z,6.20
2019-02-15T19:51:31.743Z,5.90
2019-02-15T19:54:02.525Z,5.90
2019-02-15T19:56:33.210Z,5.90
2019-02-15T19:59:03.631Z,5.50
2019-02-15T20:01:34.342Z,5.70
2019-02-15T20:04:05.311Z,5.60
2019-02-15T20:06:36.271Z,5.50
2019-02-15T20:09:06.997Z,5.60
2019-02-15T20:11:38.651Z,5.40
2019-02-15T20:14:09.665Z,5.70
2019-02-15T20:16:40.163Z,5.50
2019-02-15T20:19:10.570Z,5.50
2019-02-15T20:21:41.017Z,5.40
2019-02-15T20:24:11.650Z,5.30
2019-02-15T20:26:42.177Z,5.40
2019-02-15T20:29:12.948Z,5.40
2019-02-15T20:31:43.634Z,5.40
2019-02-15T20:34:14.446Z,5.40
2019-02-15T20:36:45.436Z,5.30
2019-02-15T20:39:16.151Z,5.40
2019-02-15T20:41:46.956Z,5.30
2019-02-15T20:44:17.667Z,5.20
2019-02-15T20:46:49.481Z,5.10
2019-02-15T20:49:20.001Z,5.00
2019-02-15T20:51:50.427Z,5.00
2019-02-15T20:54:21.822Z,5.00
2019-02-15T20:56:52.365Z,4.60
2019-02-15T20:59:23.699Z,4.80
2019-02-15T21:01:54.931Z,4.70
2019-02-15T21:04:25.583Z,4.80
2019-02-15T21:06:56.481Z,4.60
2019-02-15T21:09:27.406Z,4.80
2019-02-15T21:11:58.065Z,4.80
2019-02-15T21:14:29.240Z,4.80
2019-02-15T21:17:00.053Z,4.70
2019-02-15T21:19:31.140Z,4.70
2019-02-15T21:22:01.809Z,4.20
2019-02-15T21:24:32.688Z,4.40
2019-02-15T21:27:03.619Z,4.50
2019-02-15T21:29:35.765Z,4.20
2019-02-15T21:32:06.132Z,4.50
2019-02-15T21:34:37.845Z,4.10
2019-02-15T21:37:08.557Z,4.10
2019-02-15T21:39:39.185Z,4.40
2019-02-15T21:42:10.051Z,4.10
2019-02-15T21:44:40.810Z,4.10
2019-02-15T21:47:11.581Z,4.10
2019-02-15T21:49:42.762Z,3.60
2019-02-15T21:52:13.215Z,3.60
2019-02-15T21:54:44.041Z,3.50
2019-02-15T21:57:14.926Z,3.70
2019-02-15T21:59:45.887Z,3.60
2019-02-15T22:02:16.637Z,3.60
2019-02-15T22:04:48.101Z,3.60
2019-02-15T22:07:18.844Z,3.30
2019-02-15T22:09:49.765Z,3.40
2019-02-15T22:12:21.109Z,3.30
2019-02-15T22:14:52.260Z,3.20
2019-02-15T22:17:22.932Z,3.30
2019-02-15T22:19:54.154Z,3.30
2019-02-15T22:22:25.223Z,3.30
2019-02-15T22:24:56.346Z,3.30
2019-02-15T22:27:27.037Z,3.10
2019-02-15T22:29:57.950Z,3.00
2019-02-15T22:32:28.392Z,3.10
2019-02-15T22:34:59.201Z,2.90
2019-02-15T22:37:31.526Z,3.10
2019-02-15T22:40:25.989Z,3.00
2019-02-15T22:42:56.896Z,3.00
2019-02-15T22:45:27.482Z,3.00
2019-02-15T22:47:58.218Z,3.10
2019-02-15T22:50:35.788Z,2.90
2019-02-15T22:53:00.892Z,3.10
2019-02-15T22:55:31.542Z,3.20
2019-02-15T22:58:02.089Z,3.00
2019-02-15T23:00:47.509Z,2.70
2019-02-15T23:03:19.539Z,3.10
2019-02-15T23:05:50.403Z,2.70
2019-02-15T23:08:21.460Z,2.80
2019-02-15T23:10:52.202Z,2.90
2019-02-15T23:13:23.010Z,2.70
2019-02-15T23:15:53.573Z,2.70
2019-02-15T23:18:24.406Z,2.50
2019-02-15T23:20:55.374Z,2.70
2019-02-15T23:23:26.250Z,2.70
2019-02-15T23:25:57.316Z,3.10
2019-02-15T23:28:28.334Z,3.00
2019-02-15T23:30:59.126Z,2.80
2019-02-15T23:33:29.850Z,2.70
2019-02-15T23:36:00.477Z,2.80
2019-02-15T23:38:31.029Z,2.40
2019-02-15T23:41:01.452Z,2.40
2019-02-15T23:43:32.190Z,2.50
2019-02-15T23:46:03.019Z,2.50
2019-02-15T23:48:33.445Z,2.50
2019-02-15T23:51:04.131Z,2.50
2019-02-15T23:53:34.794Z,2.10
2019-02-15T23:56:05.188Z,2.20
2019-02-15T23:58:35.617Z,2.20
